Aérodrome :
LOGIN :

S'inscrire | Disclaimer

   EN    FR    IT 

 










Légende :    VFR   VFR Marginal   IFR   IFR Intensif   IFR Très Intensif
Visi : 
Plafond : 
>= 8 km
>= 3000ft
5 à 8 km
1000 à 3000 ft
1500m à 5 km
500 à 1000 ft
800 à 1500m
200 à 500 ft
< 800m
< 200 ft
Symboles :   Orages  Brouillard  Fortes neiges  Fortes précipitations  Vent > 20 kt
SIGMETs :   Divers  Orages  Givrage  Turbulence  Onde Orograph.  Cendres Volcan.







- Altitude de l'aérodrome : 1411 ft
- Code IATA : GVA


LSGG - Genève Cointrin

DERNIER METAR :
  • 181450Z 23006KT 9999 FEW060 BKN200 29/09 Q1014 NOSIG

METARs EXPIRÉS :
  • 181420Z 22009KT 9999 FEW050 BKN190 29/11 Q1014 NOSIG
  • 181350Z 22005KT 180V280 9999 FEW050 BKN200 29/12 Q1014 NOSIG
  • 181320Z 24004KT 160V310 9999 FEW050 BKN200 29/12 Q1015 NOSIG
  • 181250Z 08005KT 050V120 9999 FEW040 BKN200 27/15 Q1015 NOSIG
  • 181220Z 09005KT 050V150 9999 FEW045 BKN200 26/15 Q1015 NOSIG

TAF TAF LSGG
Valide du 18 à 15h jusqu'au 19 à 21h UTC


181425Z 1815/1921 22006KT 9999 FEW050 BKN200 TX29/1815Z TN15/1904Z TX29/1915Z
BECMG 1819/1821 CAVOK
BECMG 1909/1911 9999 FEW040
ATIS : +41 22 417 40 81
Pas de NOTAMs connus pour ce terrain.



MET'MAP, la Météo Aéronautique d'un coup d'oeil ! - Copyright ORBIFLY Décembre 2007 - Disclaimer

ORBIFLY MET'MAP TEAM :

Programmation & Développement : Alexandra Zaïnal
Conception & Développement : Baudouin d'Aumeries
Co-Programmation & Développement : Marc-Olivier Méhu
Soutien technique & logistique : Manuel Goepfert

Contact : metmap@orbifly.com




SOURCES & CREDITS :

   NOAA